Texas Valley, New York
Current Conditions -  °F | °C
As of 1:35 AM on Wednesday 28 Jan 2015 (Local Time) from KN03 Reporting Station
Clear Clear  
Wind Chill:   Ceiling: Unl
Heat Index:   Visibility: 10mi
Dew Point:   Wind: 3mph
Humidity: 85%   Direction: 220°SW
Pressure: 29.98"   Gusts: NA
Location:  42.4596°N, 76.0658°W
Report Text: KN03 280635Z AUTO 22003KT 10SM CLR M15/M17 A2998 RMK AO2
Loading
Personal Weather Stations






























Interactive Weather Map New forecast layout! Learn more

10-Day Weather Forecast

Advertisements
Track Severe Weather on mobile